Time;durP1;ratioP1;P1;durP2;ratioP2;P2;SDS_P1;SDS_P2;PMS_P1;PMS_P2;Temp;Humidity;BMP_temperature;BMP_pressure;BME280_temperature;BME280_humidity;BME280_pressure;Samples;Min_cycle;Max_cycle;Signal;HPM_P1;HPM_P2
2023/09/19 00:01:56;;;;;;;7.32;1.50;;;;;;;19.39;50.88;100777.38;5030244;28;20340;-75
2023/09/19 00:04:28;;;;;;;5.68;1.33;;;;;;;19.51;51.34;100775.38;5038421;28;20113;-76
2023/09/19 00:07:02;;;;;;;4.82;1.45;;;;;;;19.40;50.97;100787.03;5039210;28;20052;-76
2023/09/19 00:09:27;;;;;;;8.57;1.60;;;;;;;19.72;50.15;100777.47;5038693;28;20030;-75
2023/09/19 00:11:56;;;;;;;6.82;1.73;;;;;;;19.48;50.93;100781.59;5039134;28;20906;-75
2023/09/19 00:14:25;;;;;;;7.15;1.50;;;;;;;19.25;51.76;100787.41;5038162;28;20120;-75
2023/09/19 00:16:50;;;;;;;12.05;1.88;;;;;;;19.57;52.19;100793.75;5031358;28;20040;-75
2023/09/19 00:19:23;;;;;;;7.15;1.63;;;;;;;19.35;50.48;100794.22;5030093;28;20037;-76
2023/09/19 00:21:53;;;;;;;6.35;1.60;;;;;;;19.18;53.24;100782.31;5029861;28;20053;-75
2023/09/19 00:24:19;;;;;;;8.23;1.65;;;;;;;19.35;52.18;100796.00;5029366;28;20041;-75
2023/09/19 00:26:47;;;;;;;6.53;1.40;;;;;;;19.34;52.74;100797.75;5029976;28;20495;-75
2023/09/19 00:29:16;;;;;;;10.70;1.60;;;;;;;19.57;51.98;100794.63;5030195;28;20487;-75
2023/09/19 00:31:43;;;;;;;7.25;1.48;;;;;;;19.39;52.43;100801.16;5029174;28;20045;-74
2023/09/19 00:34:17;;;;;;;10.77;1.85;;;;;;;19.41;52.79;100804.66;5030052;28;20026;-75
2023/09/19 00:36:46;;;;;;;6.55;1.67;;;;;;;19.36;52.77;100805.66;5029455;28;20037;-75
2023/09/19 00:39:11;;;;;;;11.82;1.52;;;;;;;19.31;52.91;100803.13;5030018;28;20037;-75
2023/09/19 00:41:36;;;;;;;6.22;1.65;;;;;;;19.56;52.49;100806.09;5028921;28;20549;-75
2023/09/19 00:44:08;;;;;;;6.93;1.55;;;;;;;19.15;54.74;100800.91;5030293;28;20072;-74
2023/09/19 00:46:34;;;;;;;8.35;1.70;;;;;;;19.41;54.57;100801.13;5027186;28;20037;-75
2023/09/19 00:49:02;;;;;;;7.35;1.70;;;;;;;19.52;54.92;100803.56;5029899;28;20033;-74
2023/09/19 00:51:29;;;;;;;7.05;1.55;;;;;;;19.69;52.76;100804.03;5028828;28;20533;-74
2023/09/19 00:53:55;;;;;;;7.90;1.98;;;;;;;19.57;53.50;100797.25;5030003;28;20482;-74
2023/09/19 00:56:23;;;;;;;6.72;1.73;;;;;;;19.69;53.03;100807.53;5029142;28;20095;-75
2023/09/19 00:58:52;;;;;;;7.40;1.60;;;;;;;19.58;54.55;100809.56;5029771;28;20506;-74
2023/09/19 01:01:18;;;;;;;10.10;2.10;;;;;;;19.35;53.98;100810.09;5029718;28;20030;-75
2023/09/19 01:03:44;;;;;;;9.93;1.90;;;;;;;19.50;54.82;100815.94;5029608;28;20107;-75
2023/09/19 01:06:10;;;;;;;8.38;1.98;;;;;;;19.51;54.55;100815.06;5029598;28;20407;-75
2023/09/19 01:08:36;;;;;;;14.63;2.28;;;;;;;19.26;54.53;100815.59;5029175;28;20060;-75
2023/09/19 01:11:15;;;;;;;10.43;2.20;;;;;;;19.51;54.49;100815.91;5029404;28;20040;-75
2023/09/19 01:14:07;;;;;;;9.02;1.75;;;;;;;19.38;55.22;100820.59;5029039;28;20825;-75
2023/09/19 01:16:50;;;;;;;8.50;1.95;;;;;;;19.39;54.41;100814.38;5028942;28;20113;-74
2023/09/19 01:19:48;;;;;;;8.23;2.20;;;;;;;19.27;54.52;100811.19;5029750;28;20064;-74
2023/09/19 01:22:21;;;;;;;13.40;2.28;;;;;;;19.30;54.30;100809.31;5029339;28;20037;-75
2023/09/19 01:25:24;;;;;;;11.20;2.10;;;;;;;19.55;53.59;100814.06;5029141;28;20045;-75
2023/09/19 01:28:06;;;;;;;8.95;1.83;;;;;;;19.55;53.95;100820.22;5029278;28;20030;-75
2023/09/19 01:30:44;;;;;;;9.38;2.20;;;;;;;19.36;54.75;100822.41;5028545;28;20040;-75
2023/09/19 01:33:14;;;;;;;13.23;1.90;;;;;;;19.11;55.48;100815.06;5029423;28;20471;-75
2023/09/19 01:35:40;;;;;;;11.68;2.00;;;;;;;19.31;55.90;100819.00;5030083;28;20121;-75
2023/09/19 01:38:11;;;;;;;11.23;1.95;;;;;;;19.64;54.87;100816.50;5033008;28;20112;-75
2023/09/19 01:40:42;;;;;;;10.60;1.90;;;;;;;19.60;55.13;100818.31;5032603;28;20033;-74
2023/09/19 01:43:15;;;;;;;12.23;2.13;;;;;;;19.70;54.79;100821.63;5033475;28;20372;-74
2023/09/19 01:45:59;;;;;;;11.25;2.10;;;;;;;19.69;55.38;100830.47;5032642;28;20041;-73
2023/09/19 01:48:29;;;;;;;11.15;1.95;;;;;;;19.54;55.95;100834.34;5033011;28;20057;-75
2023/09/19 01:50:59;;;;;;;10.68;2.20;;;;;;;19.47;56.02;100831.88;5032911;28;20087;-74
2023/09/19 01:53:30;;;;;;;11.30;2.30;;;;;;;19.42;56.69;100830.19;5030835;28;20041;-74
2023/09/19 01:55:57;;;;;;;9.95;1.98;;;;;;;19.33;56.66;100834.84;5033015;28;20041;-74
2023/09/19 01:58:45;;;;;;;12.98;2.08;;;;;;;19.23;56.93;100820.94;5032708;28;20080;-74
2023/09/19 02:01:20;;;;;;;14.40;2.20;;;;;;;19.18;56.26;100821.94;5032911;28;20034;-75
2023/09/19 02:03:48;;;;;;;12.45;2.20;;;;;;;18.95;57.38;100818.06;5032906;28;20514;-74
2023/09/19 02:06:15;;;;;;;15.55;2.13;;;;;;;19.28;56.23;100828.75;5033752;28;20045;-73
2023/09/19 02:08:47;;;;;;;13.25;1.98;;;;;;;19.27;55.80;100819.94;5033184;28;20414;-74
2023/09/19 02:11:16;;;;;;;9.95;1.75;;;;;;;19.43;55.21;100825.78;5032403;28;20052;-74
2023/09/19 02:13:41;;;;;;;8.27;1.60;;;;;;;19.26;56.08;100815.59;5033102;28;20029;-74
2023/09/19 02:16:17;;;;;;;14.00;2.17;;;;;;;19.26;56.20;100820.88;5031935;28;20025;-74
2023/09/19 02:18:45;;;;;;;11.50;1.90;;;;;;;19.12;56.49;100830.88;5032185;28;20033;-74
2023/09/19 02:21:12;;;;;;;8.48;1.70;;;;;;;19.16;56.92;100829.91;5032730;28;20403;-75
2023/09/19 02:23:51;;;;;;;8.00;1.77;;;;;;;19.15;56.72;100838.72;5032260;28;20099;-73
2023/09/19 02:26:18;;;;;;;9.65;1.83;;;;;;;18.94;56.56;100840.09;5032317;28;20095;-74
2023/09/19 02:28:47;;;;;;;9.07;1.70;;;;;;;19.08;56.60;100837.16;5031972;28;20038;-74
2023/09/19 02:31:12;;;;;;;10.00;2.00;;;;;;;19.12;56.74;100843.22;5031791;28;20553;-74
2023/09/19 02:33:38;;;;;;;7.57;1.50;;;;;;;19.08;56.99;100845.09;5032187;28;20033;-74
2023/09/19 02:36:04;;;;;;;7.80;1.70;;;;;;;19.20;56.59;100839.53;5032153;28;20376;-74
2023/09/19 02:38:32;;;;;;;9.15;1.48;;;;;;;19.25;56.73;100844.69;5031848;28;20061;-74
2023/09/19 02:40:57;;;;;;;11.40;1.90;;;;;;;19.21;56.97;100835.13;5032100;28;20029;-75
2023/09/19 02:43:26;;;;;;;8.45;1.50;;;;;;;19.30;56.04;100835.75;5031668;28;20034;-74
2023/09/19 02:45:54;;;;;;;9.00;1.70;;;;;;;19.38;56.25;100835.59;5032329;28;20101;-74
2023/09/19 02:48:20;;;;;;;10.38;1.90;;;;;;;19.20;56.98;100836.00;5030804;28;20064;-77
2023/09/19 02:50:46;;;;;;;9.10;1.65;;;;;;;19.47;56.02;100831.88;5031707;28;20167;-74
2023/09/19 02:53:23;;;;;;;10.75;1.80;;;;;;;19.40;56.47;100833.75;5032167;28;20038;-74
2023/09/19 02:55:49;;;;;;;9.65;1.77;;;;;;;19.54;55.52;100818.47;5029864;28;20399;-75
2023/09/19 02:58:14;;;;;;;7.78;1.40;;;;;;;19.54;55.61;100825.53;5031781;28;20029;-74
2023/09/19 03:00:46;;;;;;;11.88;1.60;;;;;;;19.40;56.29;100828.47;5031018;28;20045;-75
2023/09/19 03:03:12;;;;;;;8.77;1.70;;;;;;;19.54;56.55;100828.19;5031822;28;20021;-75
2023/09/19 03:05:38;;;;;;;8.93;1.77;;;;;;;19.65;56.19;100844.66;5030037;28;20064;-74
2023/09/19 03:08:09;;;;;;;8.05;1.50;;;;;;;19.27;57.05;100829.69;5031507;28;20163;-74
2023/09/19 03:10:47;;;;;;;6.57;1.50;;;;;;;19.21;56.78;100832.47;5031625;28;20049;-75
2023/09/19 03:13:15;;;;;;;8.63;1.55;;;;;;;19.34;57.14;100836.53;5031567;28;20044;-74
2023/09/19 03:15:50;;;;;;;10.00;1.75;;;;;;;19.50;56.41;100837.97;5031130;28;20141;-74
2023/09/19 03:18:15;;;;;;;6.57;1.27;;;;;;;19.69;55.85;100826.06;5031716;28;20033;-74
2023/09/19 03:20:41;;;;;;;10.73;1.80;;;;;;;19.65;56.23;100831.44;5030868;28;20033;-75
2023/09/19 03:23:06;;;;;;;7.35;1.60;;;;;;;19.78;56.38;100820.50;5031620;28;20048;-75
2023/09/19 03:25:34;;;;;;;11.05;1.70;;;;;;;19.70;57.22;100833.06;5030920;28;20071;-75
2023/09/19 03:28:00;;;;;;;10.02;1.85;;;;;;;19.97;56.02;100833.28;5031506;28;20026;-74
2023/09/19 03:30:26;;;;;;;6.25;1.67;;;;;;;19.74;56.86;100826.81;5030232;28;20040;-75
2023/09/19 03:32:54;;;;;;;9.85;2.10;;;;;;;19.70;56.65;100829.56;5031369;28;20041;-74
2023/09/19 03:35:19;;;;;;;8.50;1.75;;;;;;;19.66;56.90;100820.81;5031299;28;20380;-75
2023/09/19 03:37:45;;;;;;;10.35;1.90;;;;;;;19.62;57.08;100827.09;5030567;28;20171;-74
2023/09/19 03:40:10;;;;;;;9.82;1.98;;;;;;;19.53;58.97;100819.38;5030643;28;20403;-74
2023/09/19 03:42:40;;;;;;;9.07;1.98;;;;;;;19.85;57.91;100837.09;5030519;28;20128;-74
2023/09/19 03:45:07;;;;;;;9.13;1.65;;;;;;;19.64;57.72;100835.84;5031123;28;20033;-75
2023/09/19 03:47:39;;;;;;;7.05;1.50;;;;;;;19.39;58.75;100847.91;5030659;28;20040;-74
2023/09/19 03:50:10;;;;;;;6.35;1.70;;;;;;;19.34;58.25;100841.81;5030470;28;20033;-74
2023/09/19 03:52:36;;;;;;;11.52;1.90;;;;;;;19.43;57.43;100847.78;5029999;28;20045;-74
2023/09/19 03:55:04;;;;;;;9.63;1.70;;;;;;;19.50;57.52;100850.31;5031061;28;20029;-74
2023/09/19 03:57:30;;;;;;;9.75;1.25;;;;;;;19.65;57.32;100856.09;5030529;28;20037;-74
2023/09/19 03:59:55;;;;;;;10.82;1.90;;;;;;;19.49;57.89;100844.16;5030870;28;20556;-75
2023/09/19 04:02:24;;;;;;;9.05;1.65;;;;;;;19.56;58.35;100842.25;5030073;28;20037;-79
2023/09/19 04:04:51;;;;;;;8.77;1.80;;;;;;;19.15;58.45;100846.66;5031003;28;20038;-75
2023/09/19 04:07:17;;;;;;;5.18;1.48;;;;;;;19.42;58.09;100851.34;5030820;28;20469;-73
2023/09/19 04:09:45;;;;;;;7.90;1.85;;;;;;;19.19;59.09;100858.06;5030215;28;20057;-74
2023/09/19 04:12:16;;;;;;;10.15;1.60;;;;;;;19.30;57.49;100861.31;5030456;28;20440;-74
2023/09/19 04:14:42;;;;;;;10.00;1.90;;;;;;;19.34;57.41;100861.22;5030599;28;20594;-74
2023/09/19 04:17:07;;;;;;;8.05;1.63;;;;;;;19.39;57.09;100861.13;5030555;28;20033;-74
2023/09/19 04:19:35;;;;;;;5.88;1.75;;;;;;;19.04;56.96;100864.53;5030025;28;20578;-75
2023/09/19 04:22:04;;;;;;;6.80;1.50;;;;;;;19.36;55.60;100861.19;5030412;28;20037;-74
2023/09/19 04:24:30;;;;;;;5.88;1.35;;;;;;;19.35;55.19;100872.66;5030476;28;20088;-74
2023/09/19 04:26:55;;;;;;;8.70;1.60;;;;;;;19.55;54.45;100865.19;5030807;28;20033;-74
2023/09/19 04:29:21;;;;;;;7.75;1.80;;;;;;;19.30;54.74;100872.75;5029991;28;20030;-75
2023/09/19 04:31:49;;;;;;;6.40;1.45;;;;;;;19.38;54.64;100864.66;5030084;28;20037;-74
2023/09/19 04:34:17;;;;;;;6.30;1.40;;;;;;;19.11;55.87;100865.28;5030528;28;20064;-73
2023/09/19 04:36:43;;;;;;;9.88;1.80;;;;;;;19.17;54.65;100870.41;5029778;28;20033;-74
2023/09/19 04:39:10;;;;;;;7.85;1.90;;;;;;;18.96;55.17;100875.28;5030072;28;20037;-74
2023/09/19 04:41:38;;;;;;;10.27;5.93;;;;;;;19.16;54.85;100872.19;5029305;28;20128;-73
2023/09/19 04:44:07;;;;;;;7.07;1.73;;;;;;;19.25;54.82;100877.28;5030344;28;20498;-74
2023/09/19 04:46:33;;;;;;;5.97;1.60;;;;;;;19.36;53.90;100885.84;5029800;28;20125;-74
2023/09/19 04:48:59;;;;;;;6.80;1.40;;;;;;;19.29;54.19;100886.88;5029972;28;20036;-74
2023/09/19 04:51:25;;;;;;;6.28;1.50;;;;;;;19.13;54.91;100880.19;5029392;28;20041;-74
2023/09/19 04:53:50;;;;;;;12.68;1.73;;;;;;;19.39;53.80;100885.75;5029945;28;20041;-74
2023/09/19 04:56:16;;;;;;;7.32;1.40;;;;;;;18.93;54.96;100879.75;5030016;28;20034;-74
2023/09/19 04:58:44;;;;;;;8.18;1.70;;;;;;;19.21;54.53;100880.03;5029503;28;20087;-74
2023/09/19 05:01:12;;;;;;;10.02;1.58;;;;;;;19.08;55.09;100881.22;5029703;28;20033;-74
2023/09/19 05:03:38;;;;;;;6.53;1.52;;;;;;;18.93;55.55;100888.53;5029374;28;20033;-74
2023/09/19 05:06:05;;;;;;;5.82;1.33;;;;;;;19.16;55.52;100884.53;5029738;28;20051;-73
2023/09/19 05:08:30;;;;;;;8.07;1.70;;;;;;;18.86;56.11;100897.50;5029113;28;20121;-74
2023/09/19 05:10:55;;;;;;;6.57;1.52;;;;;;;19.03;56.16;100878.63;5028849;28;20116;-74
2023/09/19 05:13:24;;;;;;;8.82;2.00;;;;;;;19.16;55.94;100879.25;5029292;28;20036;-75
2023/09/19 05:15:50;;;;;;;4.95;1.35;;;;;;;19.40;54.71;100871.63;5029660;28;20506;-74
2023/09/19 05:18:18;;;;;;;6.20;1.40;;;;;;;19.44;54.73;100875.97;5029696;28;20026;-74
2023/09/19 05:20:43;;;;;;;8.88;1.90;;;;;;;19.28;55.66;100873.69;5028945;28;20116;-73
2023/09/19 05:23:11;;;;;;;9.82;1.83;;;;;;;19.08;56.68;100875.91;5029674;28;20112;-74
2023/09/19 05:25:40;;;;;;;11.20;1.50;;;;;;;19.40;55.71;100881.34;5029092;28;20037;-74
2023/09/19 05:28:07;;;;;;;10.02;1.80;;;;;;;19.49;56.17;100889.13;5029434;28;20040;-74
2023/09/19 05:30:32;;;;;;;10.93;1.83;;;;;;;19.47;56.47;100879.47;5028705;28;20025;-74
2023/09/19 05:33:05;;;;;;;9.65;1.67;;;;;;;19.62;56.38;100879.13;5029600;28;20083;-73
2023/09/19 05:35:33;;;;;;;9.85;1.70;;;;;;;19.34;59.07;100889.41;5029076;28;20088;-74
2023/09/19 05:37:59;;;;;;;10.27;1.80;;;;;;;19.33;60.09;100882.41;5029563;28;20609;-74
2023/09/19 05:40:26;;;;;;;10.77;1.85;;;;;;;19.55;59.56;100890.75;5028882;28;20145;-74
2023/09/19 05:42:51;;;;;;;10.00;2.03;;;;;;;19.30;60.79;100890.41;5029590;28;20025;-74
2023/09/19 05:45:22;;;;;;;8.25;1.95;;;;;;;19.42;60.76;100898.06;5029642;28;20034;-74
2023/09/19 05:47:52;;;;;;;6.88;1.80;;;;;;;19.23;62.08;100902.00;5028976;28;20041;-74
2023/09/19 05:50:18;;;;;;;9.88;2.10;;;;;;;19.23;62.07;100905.53;5029023;28;20037;-74
2023/09/19 05:52:55;;;;;;;7.95;1.90;;;;;;;19.35;61.71;100905.25;5028785;28;20037;-74
2023/09/19 05:55:24;;;;;;;11.82;2.30;;;;;;;19.38;61.91;100913.13;5028712;28;20033;-74
2023/09/19 05:57:52;;;;;;;11.43;2.38;;;;;;;19.54;61.44;100911.03;5028912;28;20026;-73
2023/09/19 06:00:22;;;;;;;11.18;1.98;;;;;;;19.39;62.01;100909.56;5029311;28;20458;-74
2023/09/19 06:02:54;;;;;;;9.88;2.10;;;;;;;19.23;62.95;100899.34;5028808;28;20030;-74
2023/09/19 06:05:20;;;;;;;13.18;2.00;;;;;;;19.25;62.89;100908.13;5029166;28;20069;-74
2023/09/19 06:07:46;;;;;;;11.32;2.20;;;;;;;19.35;63.28;100912.31;5028794;28;20187;-73
2023/09/19 06:10:12;;;;;;;9.55;2.10;;;;;;;19.21;63.92;100917.03;5028689;28;20065;-73
2023/09/19 06:12:38;;;;;;;8.95;2.00;;;;;;;19.36;63.25;100912.28;5028418;28;20037;-73
2023/09/19 06:15:15;;;;;;;10.55;2.30;;;;;;;19.48;62.93;100913.81;5029177;28;20399;-72
2023/09/19 06:17:41;;;;;;;12.55;2.40;;;;;;;19.68;62.30;100908.94;5028606;28;20040;-72
2023/09/19 06:20:14;;;;;;;15.65;2.10;;;;;;;19.68;62.22;100914.25;5028847;28;20025;-71
2023/09/19 06:22:41;;;;;;;13.10;2.17;;;;;;;19.67;62.93;100914.25;5029238;28;20056;-72
2023/09/19 06:25:07;;;;;;;10.57;2.00;;;;;;;19.65;62.93;100911.66;5032708;28;20025;-72
2023/09/19 06:27:32;;;;;;;9.43;2.10;;;;;;;19.83;62.66;100913.84;5031855;28;20030;-73
2023/09/19 06:30:14;;;;;;;13.43;2.38;;;;;;;19.32;64.38;100912.41;5032456;28;20044;-71
2023/09/19 06:32:48;;;;;;;10.68;2.17;;;;;;;19.66;63.51;100910.75;5031915;28;20040;-72
2023/09/19 06:35:17;;;;;;;10.55;2.15;;;;;;;20.14;61.94;100924.56;5032342;28;20036;-72
2023/09/19 06:37:43;;;;;;;10.38;2.25;;;;;;;20.05;62.58;100924.81;5031933;28;20099;-72
2023/09/19 06:40:13;;;;;;;15.45;2.55;;;;;;;20.09;61.67;100917.66;5032032;28;20511;-73
2023/09/19 06:42:41;;;;;;;11.52;2.20;;;;;;;20.23;61.82;100921.69;5031766;28;20045;-72
2023/09/19 06:45:07;;;;;;;12.07;2.00;;;;;;;20.21;61.24;100912.03;5032185;28;20128;-72
2023/09/19 06:47:36;;;;;;;9.75;2.50;;;;;;;20.05;61.80;100916.00;5031509;28;20128;-72
2023/09/19 06:50:02;;;;;;;11.95;2.45;;;;;;;20.02;62.16;100921.34;5031889;28;20033;-73
2023/09/19 06:52:27;;;;;;;9.30;1.83;;;;;;;20.34;61.46;100915.28;5031620;28;20037;-73
2023/09/19 06:54:59;;;;;;;7.38;2.00;;;;;;;20.71;59.26;100926.63;5032413;28;20038;-73
2023/09/19 06:57:24;;;;;;;11.15;2.45;;;;;;;20.94;58.77;100924.22;5031433;28;20033;-73
2023/09/19 06:59:52;;;;;;;13.55;2.38;;;;;;;20.85;58.41;100916.53;5031853;28;20387;-72
2023/09/19 07:02:18;;;;;;;14.35;2.55;;;;;;;21.01;58.68;100919.59;5032039;28;20033;-73
2023/09/19 07:04:49;;;;;;;10.82;2.20;;;;;;;20.74;59.94;100925.69;5031627;28;20029;-73
2023/09/19 07:07:17;;;;;;;12.85;2.20;;;;;;;21.13;58.09;100919.25;5031990;28;20057;-73
2023/09/19 07:09:43;;;;;;;12.45;2.25;;;;;;;21.28;57.66;100926.81;5030368;28;20041;-72
2023/09/19 07:12:14;;;;;;;11.32;2.53;;;;;;;21.50;56.73;100921.69;5031569;28;20091;-73
2023/09/19 07:14:40;;;;;;;12.20;2.10;;;;;;;21.37;56.43;100917.69;5031239;28;20041;-74
2023/09/19 07:17:05;;;;;;;8.38;2.28;;;;;;;21.57;56.39;100928.56;5031624;28;20034;-73
2023/09/19 07:19:33;;;;;;;13.75;2.58;;;;;;;21.70;56.20;100926.41;5031169;28;20030;-73
2023/09/19 07:22:02;;;;;;;10.00;1.95;;;;;;;21.73;56.59;100926.28;5031430;28;20037;-76
2023/09/19 07:24:28;;;;;;;13.65;2.80;;;;;;;21.41;56.51;100932.56;5031054;28;20152;-73
2023/09/19 07:26:59;;;;;;;11.05;2.28;;;;;;;21.46;57.60;100930.69;5031751;28;20088;-73
2023/09/19 07:29:26;;;;;;;16.92;2.70;;;;;;;21.49;57.61;100937.66;5031432;28;20110;-76
2023/09/19 07:31:51;;;;;;;13.68;3.05;;;;;;;21.46;58.09;100941.28;5031436;28;20041;-74
2023/09/19 07:34:18;;;;;;;9.65;2.20;;;;;;;21.30;59.06;100937.34;5031155;28;20037;-74
2023/09/19 07:36:43;;;;;;;13.50;2.60;;;;;;;21.15;59.51;100951.03;5031364;28;20441;-76
2023/09/19 07:39:09;;;;;;;9.48;2.10;;;;;;;21.09;59.25;100944.13;5031715;28;20064;-75
2023/09/19 07:41:34;;;;;;;12.48;2.90;;;;;;;21.03;59.97;100944.28;5030787;28;20026;-73
2023/09/19 07:44:00;;;;;;;14.85;2.60;;;;;;;21.29;59.40;100948.84;5031156;28;20036;-73
2023/09/19 07:46:26;;;;;;;16.13;2.80;;;;;;;21.13;60.45;100944.88;5030792;28;20488;-73
2023/09/19 07:48:51;;;;;;;13.07;2.50;;;;;;;21.18;59.84;100946.53;5031020;28;20670;-73
2023/09/19 07:51:17;;;;;;;15.30;2.80;;;;;;;21.06;59.78;100938.88;5030874;28;20080;-73
2023/09/19 07:53:48;;;;;;;13.20;2.55;;;;;;;21.49;58.75;100940.31;5030734;28;20454;-72
2023/09/19 07:56:14;;;;;;;15.20;2.47;;;;;;;21.61;57.90;100938.16;5031104;28;20124;-76
2023/09/19 07:58:48;;;;;;;12.07;2.47;;;;;;;21.13;59.19;100931.63;5030775;28;20195;-74
2023/09/19 08:01:17;;;;;;;13.68;2.60;;;;;;;21.14;59.36;100923.66;5030784;28;20084;-73
2023/09/19 08:03:43;;;;;;;12.63;2.47;;;;;;;21.25;58.60;100929.53;5030234;28;20419;-75
2023/09/19 08:06:15;;;;;;;14.32;2.65;;;;;;;21.46;59.13;100920.06;5030878;28;20555;-72
2023/09/19 08:08:43;;;;;;;11.85;2.72;;;;;;;21.61;57.03;100911.63;5030227;28;20080;-72
2023/09/19 08:11:21;;;;;;;8.23;2.15;;;;;;;21.51;57.10;100915.47;5030203;28;20040;-72
2023/09/19 08:13:48;;;;;;;9.68;2.13;;;;;;;21.57;57.06;100911.78;5029799;28;20045;-74
2023/09/19 08:16:17;;;;;;;14.48;2.60;;;;;;;21.64;56.61;100906.22;5030509;28;20087;-71
2023/09/19 08:18:52;;;;;;;9.40;2.40;;;;;;;21.96;56.48;100909.63;5030512;28;20080;-72
2023/09/19 08:21:29;;;;;;;14.73;2.78;;;;;;;21.78;56.68;100897.81;5030480;28;20026;-73
2023/09/19 08:24:09;;;;;;;11.00;2.53;;;;;;;21.57;57.42;100911.78;5030358;28;20061;-73
2023/09/19 08:26:40;;;;;;;11.23;2.47;;;;;;;21.22;57.78;100912.84;5028492;28;20037;-72
2023/09/19 08:29:21;;;;;;;14.75;2.65;;;;;;;21.36;57.26;100907.97;5030224;28;20048;-74
2023/09/19 08:31:49;;;;;;;12.05;2.38;;;;;;;21.40;57.58;100905.22;5029702;28;20044;-72
2023/09/19 08:34:17;;;;;;;15.75;2.33;;;;;;;21.69;56.44;100917.56;5030528;28;20054;-72
2023/09/19 08:36:46;;;;;;;14.48;2.60;;;;;;;21.48;56.86;100915.56;5029486;28;20403;-72
2023/09/19 08:39:15;;;;;;;12.35;2.47;;;;;;;21.24;57.56;100897.75;5030036;28;20426;-73
2023/09/19 08:41:40;;;;;;;13.13;2.50;;;;;;;20.64;59.79;100914.47;5029604;28;20124;-73
2023/09/19 08:44:12;;;;;;;16.02;2.70;;;;;;;20.61;59.68;100914.56;5030240;28;20121;-72
2023/09/19 08:46:41;;;;;;;8.93;2.20;;;;;;;20.91;59.56;100913.72;5019792;28;20564;-71
2023/09/19 08:49:32;;;;;;;13.48;2.17;;;;;;;20.29;61.61;100907.44;5042601;28;20033;-73
2023/09/19 08:52:16;;;;;;;15.57;2.47;;;;;;;20.56;60.50;100906.72;5029653;28;20037;-72
2023/09/19 08:54:43;;;;;;;12.65;2.45;;;;;;;20.80;60.54;100913.13;5030925;28;20111;-72
2023/09/19 08:57:29;;;;;;;11.23;2.47;;;;;;;21.03;59.95;100923.09;5029912;28;20051;-73
2023/09/19 08:59:56;;;;;;;8.18;2.38;;;;;;;21.11;59.12;100921.06;5029276;28;20363;-76
2023/09/19 09:02:23;;;;;;;15.43;2.70;;;;;;;20.80;60.09;100915.75;5028974;28;20025;-72
2023/09/19 09:04:50;;;;;;;12.05;2.40;;;;;;;20.96;61.05;100917.09;5029690;28;20026;-74
2023/09/19 09:07:19;;;;;;;14.10;2.55;;;;;;;21.00;60.84;100912.56;5027997;28;20083;-75
2023/09/19 09:09:45;;;;;;;11.02;2.50;;;;;;;20.72;62.83;100901.00;5029266;28;20610;-73
2023/09/19 09:12:14;;;;;;;13.90;2.53;;;;;;;20.60;61.57;100912.81;5030131;28;20124;-79
2023/09/19 09:14:47;;;;;;;18.40;2.53;;;;;;;20.51;62.04;100907.75;5029413;28;20535;-75
2023/09/19 09:17:12;;;;;;;13.80;2.40;;;;;;;20.76;62.22;100907.97;5029667;28;20033;-76
2023/09/19 09:19:38;;;;;;;15.23;2.72;;;;;;;21.08;61.21;100896.44;5028688;28;20491;-74
2023/09/19 09:22:11;;;;;;;15.23;2.35;;;;;;;21.49;59.68;100911.13;5029549;28;20367;-76
2023/09/19 09:24:50;;;;;;;12.90;2.60;;;;;;;21.27;59.42;100913.56;5029200;28;20037;-75
2023/09/19 09:27:16;;;;;;;9.77;2.60;;;;;;;21.11;60.37;100906.94;5030491;28;20159;-75
2023/09/19 09:29:49;;;;;;;16.17;2.90;;;;;;;21.50;58.66;100907.56;5030803;28;20037;-76
2023/09/19 09:32:19;;;;;;;16.75;2.55;;;;;;;21.77;58.67;100910.19;5029485;28;20041;-75
2023/09/19 09:34:53;;;;;;;12.48;2.55;;;;;;;22.07;57.52;100907.53;5028646;28;20049;-76
2023/09/19 09:37:20;;;;;;;14.98;2.67;;;;;;;21.85;57.46;100896.69;5029655;28;20134;-75
2023/09/19 09:40:33;;;;;;;11.32;2.67;;;;;;;22.22;56.95;100901.69;5029152;28;20035;-74
2023/09/19 09:42:52;;;;;;;14.15;2.42;;;;;;;22.41;55.93;100904.56;5028839;28;20798;-74
2023/09/19 09:45:36;;;;;;;10.65;2.40;;;;;;;22.48;56.00;100898.13;5029549;28;20029;-73
2023/09/19 09:48:03;;;;;;;13.63;2.55;;;;;;;22.03;57.59;100888.16;5029126;28;20033;-73
2023/09/19 09:53:21;;;;;;;9.93;2.30;;;;;;;22.62;54.70;100891.41;5029267;28;20120;-73
2023/09/19 09:56:01;;;;;;;12.43;2.58;;;;;;;22.81;54.87;100880.16;5029005;28;20116;-73
2023/09/19 09:58:29;;;;;;;15.30;2.42;;;;;;;23.01;55.27;100872.28;5032225;28;20076;-74
2023/09/19 10:03:53;;;;;;;14.00;2.60;;;;;;;22.93;55.29;100866.41;5030241;28;20041;-73
2023/09/19 10:06:25;;;;;;;13.00;2.33;;;;;;;22.77;55.40;100870.53;5033022;28;20034;-74
2023/09/19 10:09:29;;;;;;;11.02;2.38;;;;;;;23.00;55.05;100862.56;5026876;28;20112;-75
2023/09/19 10:12:06;;;;;;;9.48;2.38;;;;;;;22.72;55.51;100867.16;5039299;28;20037;-74
2023/09/19 10:14:35;;;;;;;9.57;2.15;;;;;;;22.01;56.50;100854.63;5032910;28;20087;-74
2023/09/19 10:17:04;;;;;;;9.38;2.20;;;;;;;22.11;56.40;100856.03;5033016;28;20034;-73
2023/09/19 10:19:46;;;;;;;9.43;2.00;;;;;;;22.71;55.96;100858.31;5032322;28;20041;-74
2023/09/19 10:22:14;;;;;;;11.43;2.30;;;;;;;22.49;55.04;100858.22;5032802;28;20434;-74
2023/09/19 10:24:41;;;;;;;10.15;2.00;;;;;;;23.02;55.38;100844.75;5032702;28;20037;-74
2023/09/19 10:27:10;;;;;;;9.60;2.47;;;;;;;22.90;54.74;100835.47;5032772;28;20587;-74
2023/09/19 10:29:39;;;;;;;11.50;2.53;;;;;;;22.77;54.68;100836.84;5031759;28;20430;-74
2023/09/19 10:32:06;;;;;;;10.48;2.28;;;;;;;22.91;54.59;100853.16;5032855;28;20034;-74
2023/09/19 10:34:41;;;;;;;9.57;2.47;;;;;;;23.04;55.35;100848.25;5032120;28;20052;-74
2023/09/19 10:37:11;;;;;;;7.05;2.05;;;;;;;23.23;53.80;100849.25;5033018;28;20040;-73
2023/09/19 10:39:40;;;;;;;8.52;2.13;;;;;;;23.11;54.10;100855.06;5032951;28;20515;-73
2023/09/19 10:42:08;;;;;;;9.38;2.00;;;;;;;22.85;55.36;100841.88;5032958;28;20049;-73
2023/09/19 10:44:42;;;;;;;11.65;2.42;;;;;;;22.66;55.76;100825.72;5032056;28;20033;-73
2023/09/19 10:47:09;;;;;;;12.23;2.00;;;;;;;22.32;57.29;100831.41;5032940;28;20033;-74
2023/09/19 10:49:34;;;;;;;7.93;2.00;;;;;;;22.88;55.40;100831.13;5032294;28;20052;-74
2023/09/19 10:52:02;;;;;;;7.90;1.83;;;;;;;23.05;54.73;100845.50;5044706;28;20502;-74
2023/09/19 10:54:36;;;;;;;12.23;2.08;;;;;;;23.31;54.08;100841.81;5048447;28;20056;-76
2023/09/19 10:57:05;;;;;;;9.93;2.15;;;;;;;23.19;53.47;100833.47;5052049;28;20055;-72
2023/09/19 10:59:34;;;;;;;7.25;1.63;;;;;;;23.25;53.25;100833.22;5049603;28;20029;-75
2023/09/19 11:02:24;;;;;;;12.02;2.00;;;;;;;22.95;54.61;100838.81;5050908;28;20037;-73
2023/09/19 11:04:49;;;;;;;6.10;1.77;;;;;;;23.02;54.33;100834.13;5053454;28;20017;-74
2023/09/19 11:07:15;;;;;;;9.30;1.70;;;;;;;22.57;55.18;100834.00;5057445;28;20029;-72
2023/09/19 11:09:53;;;;;;;8.98;1.85;;;;;;;22.86;54.63;100806.41;5055378;28;20049;-73
2023/09/19 11:12:52;;;;;;;11.20;1.70;;;;;;;23.47;53.25;100827.97;5056604;28;20025;-74
2023/09/19 11:15:57;;;;;;;12.13;1.83;;;;;;;23.45;53.63;100812.88;5042575;28;20034;-75
2023/09/19 11:18:45;;;;;;;10.38;2.13;;;;;;;23.23;53.37;100821.81;5032431;28;20071;-74
2023/09/19 11:21:32;;;;;;;7.28;1.60;;;;;;;23.35;53.21;100814.19;5033375;28;20080;-73
2023/09/19 11:24:10;;;;;;;6.75;1.88;;;;;;;23.08;54.17;100828.56;5030668;28;20103;-73
2023/09/19 11:27:09;;;;;;;9.05;1.83;;;;;;;23.06;53.63;100802.03;5033608;28;20034;-73
2023/09/19 11:29:36;;;;;;;8.27;1.60;;;;;;;22.84;54.23;100808.25;5031448;28;20095;-72
2023/09/19 11:32:01;;;;;;;12.40;1.80;;;;;;;22.73;54.94;100810.44;5031192;28;20650;-73
2023/09/19 11:34:44;;;;;;;5.05;1.75;;;;;;;23.06;54.28;100812.66;5032978;28;20068;-74
2023/09/19 11:37:11;;;;;;;9.07;1.80;;;;;;;22.95;54.43;100809.56;5032176;28;20061;-73
2023/09/19 11:40:09;;;;;;;6.38;1.85;;;;;;;22.54;56.22;100815.53;5031259;28;20037;-73
2023/09/19 11:42:49;;;;;;;8.27;1.73;;;;;;;22.69;55.79;100809.66;5029600;28;20080;-73